createdAt,value
2022-10-06T00:02:23.302Z,16.23
2022-10-06T00:05:26.091Z,18.27
2022-10-06T00:08:31.542Z,17.02
2022-10-06T00:11:35.711Z,21.30
2022-10-06T00:14:38.759Z,16.97
2022-10-06T00:17:42.154Z,17.27
2022-10-06T00:20:44.947Z,15.40
2022-10-06T00:23:47.621Z,15.35
2022-10-06T00:26:50.372Z,16.63
2022-10-06T00:29:53.219Z,14.70
2022-10-06T00:33:01.707Z,16.95
2022-10-06T00:36:04.769Z,16.63
2022-10-06T00:39:07.461Z,17.08
2022-10-06T00:42:22.567Z,20.27
2022-10-06T00:45:40.041Z,21.47
2022-10-06T00:48:44.799Z,23.13
2022-10-06T00:51:51.015Z,24.90
2022-10-06T00:54:54.035Z,19.15
2022-10-06T00:57:57.314Z,20.50
2022-10-06T01:01:00.314Z,17.97
2022-10-06T01:04:09.480Z,21.92
2022-10-06T01:07:12.479Z,19.15
2022-10-06T01:10:15.607Z,21.10
2022-10-06T01:13:18.785Z,22.85
2022-10-06T01:16:27.155Z,20.43
2022-10-06T01:19:47.610Z,19.33
2022-10-06T01:22:55.652Z,25.25
2022-10-06T01:26:01.265Z,22.77
2022-10-06T01:29:04.267Z,21.17
2022-10-06T01:32:08.031Z,19.80
2022-10-06T01:35:11.789Z,21.98
2022-10-06T01:38:16.433Z,26.83
2022-10-06T01:41:22.527Z,27.77
2022-10-06T01:44:25.398Z,24.75
2022-10-06T01:47:28.308Z,24.07
2022-10-06T01:50:31.970Z,27.20
2022-10-06T01:53:34.861Z,28.52
2022-10-06T01:56:38.040Z,28.73
2022-10-06T01:59:40.824Z,26.50
2022-10-06T02:02:43.765Z,30.17
2022-10-06T02:05:46.699Z,26.55
2022-10-06T02:08:49.972Z,25.77
2022-10-06T02:11:53.357Z,28.85
2022-10-06T02:14:56.186Z,32.20
2022-10-06T02:17:59.809Z,27.63
2022-10-06T02:21:04.054Z,28.92
2022-10-06T02:24:07.376Z,30.73
2022-10-06T02:27:10.363Z,28.63
2022-10-06T02:30:14.877Z,29.05
2022-10-06T02:33:19.414Z,26.10
2022-10-06T02:36:25.245Z,25.95
2022-10-06T02:39:28.789Z,26.23
2022-10-06T02:42:31.773Z,21.83
2022-10-06T02:45:35.837Z,22.42
2022-10-06T02:48:39.826Z,23.63
2022-10-06T02:51:43.422Z,24.10
2022-10-06T02:54:47.035Z,24.85
2022-10-06T02:57:50.275Z,24.20
2022-10-06T03:00:53.129Z,20.90
2022-10-06T03:03:56.219Z,22.43
2022-10-06T03:06:59.154Z,23.55
2022-10-06T03:10:07.534Z,27.98
2022-10-06T03:13:10.311Z,35.30
2022-10-06T03:16:19.484Z,33.88
2022-10-06T03:19:22.716Z,50.17
2022-10-06T03:22:26.106Z,48.67
2022-10-06T03:25:31.189Z,45.75
2022-10-06T03:28:34.399Z,39.05
2022-10-06T03:31:38.148Z,33.42
2022-10-06T03:34:41.282Z,36.80
2022-10-06T03:37:47.613Z,42.72
2022-10-06T03:40:50.839Z,40.10
2022-10-06T03:43:55.126Z,36.92
2022-10-06T03:46:58.329Z,44.92
2022-10-06T03:50:01.779Z,44.00
2022-10-06T03:53:05.518Z,41.13
2022-10-06T03:56:11.940Z,40.42
2022-10-06T03:59:17.524Z,36.63
2022-10-06T04:02:22.314Z,36.88
2022-10-06T04:05:25.080Z,39.27
2022-10-06T04:08:30.165Z,39.25
2022-10-06T04:11:37.723Z,39.92
2022-10-06T04:14:41.467Z,34.40
2022-10-06T04:17:44.727Z,40.22
2022-10-06T04:20:47.579Z,39.50
2022-10-06T04:23:53.858Z,43.95
2022-10-06T04:27:16.879Z,38.97
2022-10-06T04:30:26.348Z,38.20
2022-10-06T04:33:31.363Z,43.78
2022-10-06T04:36:38.270Z,41.17
2022-10-06T04:39:41.330Z,44.95
2022-10-06T04:42:45.826Z,52.17
2022-10-06T04:46:09.521Z,44.45
2022-10-06T04:49:24.956Z,50.17
2022-10-06T04:52:29.190Z,46.03
2022-10-06T04:55:31.989Z,48.63
2022-10-06T04:58:38.220Z,49.72
2022-10-06T05:01:41.180Z,47.15
2022-10-06T05:04:47.716Z,46.35
2022-10-06T05:07:52.126Z,46.50
2022-10-06T05:11:03.898Z,42.33
2022-10-06T05:14:07.073Z,44.08
2022-10-06T05:17:13.144Z,45.53
2022-10-06T05:20:18.021Z,50.38
2022-10-06T05:23:21.868Z,63.40
2022-10-06T05:26:28.577Z,56.35
2022-10-06T05:29:34.691Z,62.03
2022-10-06T05:32:38.886Z,61.88
2022-10-06T05:35:51.380Z,63.10
2022-10-06T05:38:58.717Z,55.20
2022-10-06T05:42:03.169Z,55.50
2022-10-06T05:45:06.346Z,54.15
2022-10-06T05:48:10.426Z,50.55
2022-10-06T05:51:13.811Z,49.83
2022-10-06T05:54:17.298Z,46.47
2022-10-06T05:57:20.159Z,49.10
2022-10-06T06:00:23.779Z,52.15
2022-10-06T06:03:31.273Z,44.78
2022-10-06T06:06:37.267Z,40.00
2022-10-06T06:09:43.447Z,39.73
2022-10-06T06:12:49.151Z,34.08
2022-10-06T06:16:31.180Z,33.33
2022-10-06T06:19:34.416Z,36.30
2022-10-06T06:22:37.572Z,36.88
2022-10-06T06:25:42.817Z,30.00
2022-10-06T06:29:07.798Z,29.00
2022-10-06T06:32:17.279Z,35.00
2022-10-06T06:35:20.934Z,32.85
2022-10-06T06:38:24.020Z,31.88
2022-10-06T06:41:31.354Z,26.27
2022-10-06T06:44:42.839Z,28.02
2022-10-06T06:48:06.315Z,23.92
2022-10-06T06:52:16.847Z,24.45
2022-10-06T06:55:20.354Z,22.10
2022-10-06T06:58:25.796Z,21.53
2022-10-06T07:01:29.146Z,20.52
2022-10-06T07:04:33.331Z,22.58
2022-10-06T07:07:36.709Z,24.60
2022-10-06T07:10:39.886Z,21.13
2022-10-06T07:13:43.787Z,18.73
2022-10-06T07:17:05.173Z,23.38
2022-10-06T07:20:27.384Z,23.00
2022-10-06T07:23:48.882Z,19.02
2022-10-06T07:26:55.273Z,19.08
2022-10-06T07:29:59.297Z,18.77
2022-10-06T07:33:07.632Z,18.77
2022-10-06T07:36:11.967Z,24.38
2022-10-06T07:39:15.757Z,19.77
2022-10-06T07:42:19.394Z,21.50
2022-10-06T07:45:38.712Z,18.00
2022-10-06T07:48:47.079Z,22.05
2022-10-06T07:52:20.990Z,22.67
2022-10-06T07:55:24.606Z,19.90
2022-10-06T07:58:45.866Z,19.45
2022-10-06T08:01:51.202Z,18.80
2022-10-06T08:04:59.397Z,20.88
2022-10-06T08:08:06.107Z,18.90
2022-10-06T08:11:13.827Z,18.02
2022-10-06T08:14:16.860Z,16.58
2022-10-06T08:17:19.912Z,16.50
2022-10-06T08:20:30.534Z,15.05
2022-10-06T08:23:33.311Z,17.42
2022-10-06T08:26:36.080Z,15.20
2022-10-06T08:29:38.829Z,14.98
2022-10-06T08:32:44.813Z,16.73
2022-10-06T08:35:53.187Z,11.60
2022-10-06T08:38:56.766Z,14.98
2022-10-06T08:41:59.672Z,14.35
2022-10-06T08:45:06.100Z,11.13
2022-10-06T08:48:24.266Z,10.70
2022-10-06T08:51:43.517Z,11.52
2022-10-06T08:55:14.118Z,13.60
2022-10-06T08:58:52.849Z,13.02
2022-10-06T09:01:55.897Z,11.00
2022-10-06T09:05:09.079Z,11.60
2022-10-06T09:08:42.117Z,9.63
2022-10-06T09:12:11.948Z,8.68
2022-10-06T09:15:16.855Z,8.63
2022-10-06T09:19:07.236Z,9.60
2022-10-06T09:23:01.717Z,9.07
2022-10-06T09:26:09.971Z,10.35
2022-10-06T09:29:14.765Z,8.90
2022-10-06T09:33:32.857Z,10.90
2022-10-06T09:37:01.659Z,7.82
2022-10-06T09:40:31.829Z,8.53
2022-10-06T09:43:34.581Z,11.48
2022-10-06T09:46:42.443Z,12.57
2022-10-06T09:50:22.557Z,10.93
2022-10-06T09:53:26.353Z,9.00
2022-10-06T10:00:27.825Z,9.55
2022-10-06T10:07:26.802Z,12.32
2022-10-06T10:10:35.695Z,11.57
2022-10-06T10:13:44.531Z,8.90
2022-10-06T10:16:53.134Z,8.25
2022-10-06T10:20:01.542Z,14.32
2022-10-06T10:23:21.502Z,10.95
2022-10-06T10:26:59.735Z,9.10
2022-10-06T10:30:10.048Z,9.47
2022-10-06T10:36:51.097Z,9.23
2022-10-06T10:40:16.631Z,13.82
2022-10-06T10:43:33.932Z,12.05
2022-10-06T10:46:44.943Z,7.83
2022-10-06T10:49:56.489Z,19.27
2022-10-06T10:53:11.436Z,10.65
2022-10-06T10:56:16.583Z,13.20
2022-10-06T10:59:36.350Z,7.28
2022-10-06T11:02:41.264Z,7.60
2022-10-06T11:06:03.683Z,8.23
2022-10-06T11:10:01.845Z,6.75
2022-10-06T11:14:17.032Z,13.77
2022-10-06T11:17:44.515Z,21.77
2022-10-06T11:20:53.435Z,4.23
2022-10-06T11:24:15.884Z,5.72
2022-10-06T11:27:59.232Z,3.10
2022-10-06T11:31:20.196Z,3.47
2022-10-06T11:34:26.240Z,5.25
2022-10-06T11:37:47.935Z,8.77
2022-10-06T11:41:16.286Z,6.07
2022-10-06T11:44:37.506Z,5.88
2022-10-06T11:48:22.158Z,5.53
2022-10-06T11:51:29.552Z,6.50
2022-10-06T11:54:53.701Z,6.70
2022-10-06T11:58:23.543Z,6.38
2022-10-06T12:02:45.762Z,6.05
2022-10-06T12:05:56.130Z,4.15
2022-10-06T12:08:59.516Z,5.28
2022-10-06T12:12:24.783Z,6.93
2022-10-06T12:19:20.450Z,6.47
2022-10-06T12:22:49.541Z,4.15
2022-10-06T12:26:20.079Z,5.10
2022-10-06T12:29:40.811Z,5.90
2022-10-06T12:33:00.653Z,4.70
2022-10-06T12:36:06.224Z,5.20
2022-10-06T12:39:23.687Z,4.30
2022-10-06T12:42:31.320Z,7.13
2022-10-06T12:45:34.600Z,6.63
2022-10-06T12:49:25.409Z,5.07
2022-10-06T12:52:39.404Z,4.90
2022-10-06T12:55:50.134Z,6.25
2022-10-06T12:58:52.952Z,6.45
2022-10-06T13:02:03.032Z,4.80
2022-10-06T13:05:12.885Z,5.10
2022-10-06T13:08:27.617Z,5.22
2022-10-06T13:11:30.371Z,4.70
2022-10-06T13:14:33.091Z,4.75
2022-10-06T13:17:49.001Z,4.70
2022-10-06T13:20:56.090Z,3.95
2022-10-06T13:23:59.343Z,4.88
2022-10-06T13:27:03.097Z,6.45
2022-10-06T13:30:22.594Z,5.38
2022-10-06T13:33:30.310Z,4.90
2022-10-06T13:36:37.469Z,4.95
2022-10-06T13:39:40.391Z,3.22
2022-10-06T13:42:47.451Z,3.83
2022-10-06T13:45:50.321Z,4.35
2022-10-06T13:48:59.812Z,7.47
2022-10-06T13:52:34.285Z,2.65
2022-10-06T13:55:37.076Z,4.05
2022-10-06T13:58:39.846Z,5.03
2022-10-06T14:01:43.430Z,4.18
2022-10-06T14:05:20.160Z,3.73
2022-10-06T14:08:28.149Z,4.93
2022-10-06T14:11:31.812Z,4.93
2022-10-06T14:14:34.703Z,4.40
2022-10-06T14:17:37.484Z,6.63
2022-10-06T14:20:46.032Z,5.00
2022-10-06T14:23:53.068Z,4.00
2022-10-06T14:27:01.932Z,7.60
2022-10-06T14:30:10.066Z,5.50
2022-10-06T14:33:12.954Z,5.40
2022-10-06T14:36:19.216Z,6.07
2022-10-06T14:39:22.308Z,8.00
2022-10-06T14:42:25.076Z,6.20
2022-10-06T14:45:27.741Z,4.45
2022-10-06T14:48:30.790Z,5.82
2022-10-06T14:51:36.636Z,5.23
2022-10-06T14:54:39.802Z,4.80
2022-10-06T14:57:42.498Z,8.50
2022-10-06T15:00:45.868Z,6.40
2022-10-06T15:03:53.372Z,4.57
2022-10-06T15:07:14.714Z,5.17
2022-10-06T15:10:17.475Z,14.07
2022-10-06T15:13:20.572Z,12.48
2022-10-06T15:16:23.445Z,18.27
2022-10-06T15:19:26.633Z,11.38
2022-10-06T15:22:31.839Z,14.60
2022-10-06T15:25:52.946Z,17.23
2022-10-06T15:29:02.310Z,20.00
2022-10-06T15:32:06.817Z,21.75
2022-10-06T15:35:09.923Z,21.83
2022-10-06T15:38:12.655Z,9.90
2022-10-06T15:41:15.977Z,12.20
2022-10-06T15:44:19.838Z,24.65
2022-10-06T15:47:22.668Z,47.13
2022-10-06T15:50:25.422Z,62.33
2022-10-06T15:53:28.187Z,50.67
2022-10-06T15:56:32.029Z,73.30
2022-10-06T15:59:35.615Z,58.25
2022-10-06T16:02:38.377Z,51.85
2022-10-06T16:05:46.757Z,39.85
2022-10-06T16:08:49.677Z,46.53
2022-10-06T16:11:53.523Z,41.33
2022-10-06T16:14:56.547Z,36.92
2022-10-06T16:17:59.655Z,26.70
2022-10-06T16:21:03.005Z,19.23
2022-10-06T16:24:06.000Z,17.97
2022-10-06T16:27:16.108Z,28.92
2022-10-06T16:30:18.979Z,45.42
2022-10-06T16:33:21.780Z,33.47
2022-10-06T16:36:24.737Z,26.02
2022-10-06T16:39:28.211Z,30.10
2022-10-06T16:42:31.002Z,37.67
2022-10-06T16:45:34.283Z,31.23
2022-10-06T16:48:39.628Z,30.73
2022-10-06T16:51:45.856Z,24.90
2022-10-06T16:54:48.677Z,23.37
2022-10-06T16:57:51.358Z,25.00
2022-10-06T17:00:58.397Z,24.58
2022-10-06T17:04:06.716Z,22.67
2022-10-06T17:07:10.050Z,27.88
2022-10-06T17:10:20.639Z,27.53
2022-10-06T17:13:24.061Z,34.20
2022-10-06T17:16:32.810Z,37.10
2022-10-06T17:19:36.139Z,43.47
2022-10-06T17:22:39.039Z,49.63
2022-10-06T17:25:42.637Z,42.77
2022-10-06T17:28:50.511Z,58.92
2022-10-06T17:31:56.351Z,69.20
2022-10-06T17:34:59.326Z,69.90
2022-10-06T17:38:03.739Z,69.32
2022-10-06T17:41:10.562Z,69.23
2022-10-06T17:44:21.446Z,84.90
2022-10-06T17:47:24.214Z,74.60
2022-10-06T17:50:27.819Z,61.00
2022-10-06T17:53:30.671Z,58.65
2022-10-06T17:56:37.387Z,51.87
2022-10-06T17:59:40.072Z,52.63
2022-10-06T18:02:43.386Z,48.97
2022-10-06T18:05:53.762Z,45.83
2022-10-06T18:08:59.575Z,44.80
2022-10-06T18:12:03.354Z,54.43
2022-10-06T18:15:06.435Z,51.33
2022-10-06T18:18:09.230Z,53.72
2022-10-06T18:21:12.619Z,45.85
2022-10-06T18:24:17.170Z,49.95
2022-10-06T18:27:20.425Z,48.13
2022-10-06T18:30:28.347Z,50.30
2022-10-06T18:36:54.800Z,41.85
2022-10-06T18:39:57.644Z,59.55
2022-10-06T18:43:00.940Z,67.60
2022-10-06T18:46:25.132Z,65.22
2022-10-06T18:49:28.056Z,62.60
2022-10-06T18:52:30.967Z,77.32
2022-10-06T18:55:35.202Z,70.63
2022-10-06T18:58:39.959Z,62.40
2022-10-06T19:01:45.564Z,51.08
2022-10-06T19:04:48.554Z,37.63
2022-10-06T19:07:53.995Z,37.80
2022-10-06T19:11:21.042Z,35.35
2022-10-06T19:14:29.940Z,45.77
2022-10-06T19:17:32.695Z,43.85
2022-10-06T19:20:35.671Z,42.65
2022-10-06T19:23:40.109Z,39.17
2022-10-06T19:26:46.127Z,35.40
2022-10-06T19:29:56.793Z,37.97
2022-10-06T19:32:59.815Z,37.88
2022-10-06T19:36:03.836Z,36.60
2022-10-06T19:39:10.609Z,35.33
2022-10-06T19:42:34.619Z,40.50
2022-10-06T19:45:37.579Z,45.63
2022-10-06T19:48:40.593Z,57.25
2022-10-06T19:51:44.243Z,57.10
2022-10-06T19:54:47.048Z,75.97
2022-10-06T19:57:53.696Z,115.35
2022-10-06T20:00:56.470Z,105.33
2022-10-06T20:03:59.733Z,116.22
2022-10-06T20:07:03.003Z,112.00
2022-10-06T20:10:06.601Z,86.07
2022-10-06T20:13:10.035Z,77.97
2022-10-06T20:16:18.749Z,87.30
2022-10-06T20:19:22.362Z,77.32
2022-10-06T20:22:25.633Z,83.32
2022-10-06T20:25:28.473Z,77.45
2022-10-06T20:28:34.611Z,74.45
2022-10-06T20:31:43.057Z,72.57
2022-10-06T20:34:45.806Z,60.15
2022-10-06T20:37:48.570Z,49.90
2022-10-06T20:40:51.657Z,46.80
2022-10-06T20:43:57.270Z,59.42
2022-10-06T20:47:00.264Z,59.57
2022-10-06T20:50:03.033Z,61.22
2022-10-06T20:53:05.918Z,60.08
2022-10-06T20:56:09.735Z,57.00
2022-10-06T20:59:12.737Z,58.20
2022-10-06T21:02:15.639Z,60.43
2022-10-06T21:05:18.965Z,62.15
2022-10-06T21:08:22.395Z,61.50
2022-10-06T21:11:25.837Z,55.03
2022-10-06T21:14:29.490Z,52.97
2022-10-06T21:17:32.236Z,54.80
2022-10-06T21:20:40.764Z,53.40
2022-10-06T21:23:50.263Z,55.28
2022-10-06T21:26:53.051Z,45.25
2022-10-06T21:29:56.223Z,43.83
2022-10-06T21:32:59.271Z,40.57
2022-10-06T21:36:04.092Z,39.33
2022-10-06T21:39:07.370Z,38.80
2022-10-06T21:42:10.263Z,35.70
2022-10-06T21:45:13.143Z,37.80
2022-10-06T21:48:16.064Z,35.47
2022-10-06T21:51:19.353Z,40.90
2022-10-06T21:54:23.601Z,35.60
2022-10-06T21:57:26.281Z,33.58
2022-10-06T22:00:28.968Z,28.98
2022-10-06T22:03:34.887Z,34.17
2022-10-06T22:06:37.760Z,23.95
2022-10-06T22:09:40.481Z,30.73
2022-10-06T22:12:43.273Z,29.27
2022-10-06T22:15:46.039Z,24.88
2022-10-06T22:18:49.768Z,28.93
2022-10-06T22:21:54.238Z,27.70
2022-10-06T22:24:56.889Z,24.92
2022-10-06T22:27:59.603Z,30.23
2022-10-06T22:31:08.020Z,27.40
2022-10-06T22:34:13.427Z,29.10
2022-10-06T22:37:16.108Z,21.15
2022-10-06T22:40:18.835Z,26.83
2022-10-06T22:43:21.619Z,25.35
2022-10-06T22:46:25.982Z,25.58
2022-10-06T22:49:28.683Z,20.30
2022-10-06T22:52:31.398Z,21.27
2022-10-06T22:55:34.122Z,28.48
2022-10-06T22:58:38.855Z,24.77
2022-10-06T23:01:41.912Z,25.67
2022-10-06T23:04:44.779Z,27.33
2022-10-06T23:07:47.755Z,23.58
2022-10-06T23:10:50.705Z,27.48
2022-10-06T23:13:53.737Z,22.17
2022-10-06T23:16:56.549Z,21.95
2022-10-06T23:19:59.344Z,21.97
2022-10-06T23:23:02.145Z,23.25
2022-10-06T23:26:10.652Z,22.27
2022-10-06T23:29:13.419Z,20.00
2022-10-06T23:32:16.386Z,23.40
2022-10-06T23:35:19.065Z,26.60
2022-10-06T23:38:21.922Z,23.90
2022-10-06T23:41:24.677Z,26.83
2022-10-06T23:44:27.595Z,23.40
2022-10-06T23:47:30.365Z,26.05
2022-10-06T23:50:33.539Z,22.70
2022-10-06T23:53:36.884Z,24.50
2022-10-06T23:56:39.639Z,30.98
2022-10-06T23:59:42.351Z,23.40
